sensor_id;sensor_type;location;lat;lon;timestamp;P1;durP1;ratioP1;P2;durP2;ratioP2
18677;SDS011;9469;51.114;13.914;2023-12-14T00:01:33;18.57;;;12.33;;
18677;SDS011;9469;51.114;13.914;2023-12-14T00:06:38;19.17;;;12.97;;
18677;SDS011;9469;51.114;13.914;2023-12-14T00:11:44;18.13;;;11.83;;
18677;SDS011;9469;51.114;13.914;2023-12-14T00:16:52;19.70;;;12.20;;
18677;SDS011;9469;51.114;13.914;2023-12-14T00:22:01;25.23;;;14.10;;
18677;SDS011;9469;51.114;13.914;2023-12-14T00:27:08;21.27;;;12.67;;
18677;SDS011;9469;51.114;13.914;2023-12-14T00:32:16;17.33;;;11.63;;
18677;SDS011;9469;51.114;13.914;2023-12-14T00:37:21;20.27;;;13.77;;
18677;SDS011;9469;51.114;13.914;2023-12-14T00:42:26;20.67;;;12.40;;
18677;SDS011;9469;51.114;13.914;2023-12-14T00:47:34;21.73;;;14.27;;
18677;SDS011;9469;51.114;13.914;2023-12-14T00:52:39;23.20;;;14.13;;
18677;SDS011;9469;51.114;13.914;2023-12-14T00:57:45;23.13;;;13.53;;
18677;SDS011;9469;51.114;13.914;2023-12-14T01:02:52;20.63;;;12.33;;
18677;SDS011;9469;51.114;13.914;2023-12-14T01:07:58;21.40;;;13.17;;
18677;SDS011;9469;51.114;13.914;2023-12-14T01:13:04;21.00;;;12.13;;
18677;SDS011;9469;51.114;13.914;2023-12-14T01:18:12;22.13;;;12.67;;
18677;SDS011;9469;51.114;13.914;2023-12-14T01:23:19;18.93;;;11.90;;
18677;SDS011;9469;51.114;13.914;2023-12-14T01:28:26;18.77;;;12.03;;
18677;SDS011;9469;51.114;13.914;2023-12-14T01:33:34;19.07;;;11.63;;
18677;SDS011;9469;51.114;13.914;2023-12-14T01:38:39;21.67;;;12.53;;
18677;SDS011;9469;51.114;13.914;2023-12-14T01:43:44;20.37;;;12.40;;
18677;SDS011;9469;51.114;13.914;2023-12-14T01:48:52;21.77;;;12.60;;
18677;SDS011;9469;51.114;13.914;2023-12-14T01:53:57;21.57;;;13.20;;
18677;SDS011;9469;51.114;13.914;2023-12-14T01:59:03;20.37;;;12.47;;
18677;SDS011;9469;51.114;13.914;2023-12-14T02:04:12;20.80;;;12.83;;
18677;SDS011;9469;51.114;13.914;2023-12-14T02:09:19;19.07;;;12.67;;
18677;SDS011;9469;51.114;13.914;2023-12-14T02:14:26;22.40;;;12.73;;
18677;SDS011;9469;51.114;13.914;2023-12-14T02:19:37;19.70;;;12.90;;
18677;SDS011;9469;51.114;13.914;2023-12-14T02:24:45;19.73;;;12.50;;
18677;SDS011;9469;51.114;13.914;2023-12-14T02:29:50;22.10;;;12.97;;
18677;SDS011;9469;51.114;13.914;2023-12-14T02:34:57;19.63;;;12.83;;
18677;SDS011;9469;51.114;13.914;2023-12-14T02:40:08;19.30;;;13.60;;
18677;SDS011;9469;51.114;13.914;2023-12-14T02:45:16;19.60;;;12.73;;
18677;SDS011;9469;51.114;13.914;2023-12-14T02:50:21;19.73;;;12.30;;
18677;SDS011;9469;51.114;13.914;2023-12-14T02:55:30;20.03;;;12.73;;
18677;SDS011;9469;51.114;13.914;2023-12-14T03:00:35;19.70;;;13.17;;
18677;SDS011;9469;51.114;13.914;2023-12-14T03:05:40;21.07;;;13.37;;
18677;SDS011;9469;51.114;13.914;2023-12-14T03:10:48;19.83;;;12.87;;
18677;SDS011;9469;51.114;13.914;2023-12-14T03:15:56;18.47;;;11.77;;
18677;SDS011;9469;51.114;13.914;2023-12-14T03:21:02;20.83;;;13.70;;
18677;SDS011;9469;51.114;13.914;2023-12-14T03:26:11;18.43;;;12.27;;
18677;SDS011;9469;51.114;13.914;2023-12-14T03:31:16;19.07;;;12.27;;
18677;SDS011;9469;51.114;13.914;2023-12-14T03:36:21;20.13;;;13.27;;
18677;SDS011;9469;51.114;13.914;2023-12-14T03:41:31;21.10;;;12.30;;
18677;SDS011;9469;51.114;13.914;2023-12-14T03:46:36;18.33;;;12.83;;
18677;SDS011;9469;51.114;13.914;2023-12-14T03:51:44;16.63;;;12.10;;
18677;SDS011;9469;51.114;13.914;2023-12-14T03:56:55;18.63;;;11.77;;
18677;SDS011;9469;51.114;13.914;2023-12-14T04:02:00;18.53;;;10.60;;
18677;SDS011;9469;51.114;13.914;2023-12-14T04:07:05;19.27;;;12.17;;
18677;SDS011;9469;51.114;13.914;2023-12-14T04:12:13;16.07;;;10.73;;
18677;SDS011;9469;51.114;13.914;2023-12-14T04:17:18;19.87;;;13.00;;
18677;SDS011;9469;51.114;13.914;2023-12-14T04:22:24;31.10;;;17.50;;
18677;SDS011;9469;51.114;13.914;2023-12-14T04:27:32;32.63;;;18.07;;
18677;SDS011;9469;51.114;13.914;2023-12-14T04:32:37;30.47;;;17.30;;
18677;SDS011;9469;51.114;13.914;2023-12-14T04:37:42;40.23;;;19.20;;
18677;SDS011;9469;51.114;13.914;2023-12-14T04:42:51;37.17;;;18.93;;
18677;SDS011;9469;51.114;13.914;2023-12-14T04:47:56;38.10;;;19.63;;
18677;SDS011;9469;51.114;13.914;2023-12-14T04:53:02;38.20;;;18.33;;
18677;SDS011;9469;51.114;13.914;2023-12-14T04:58:10;39.37;;;18.43;;
18677;SDS011;9469;51.114;13.914;2023-12-14T05:03:15;35.97;;;19.57;;
18677;SDS011;9469;51.114;13.914;2023-12-14T05:08:20;30.97;;;18.33;;
18677;SDS011;9469;51.114;13.914;2023-12-14T05:13:28;33.37;;;19.27;;
18677;SDS011;9469;51.114;13.914;2023-12-14T05:18:34;38.00;;;20.73;;
18677;SDS011;9469;51.114;13.914;2023-12-14T05:23:39;40.50;;;20.40;;
18677;SDS011;9469;51.114;13.914;2023-12-14T05:28:48;47.70;;;19.83;;
18677;SDS011;9469;51.114;13.914;2023-12-14T05:33:53;59.57;;;18.83;;
18677;SDS011;9469;51.114;13.914;2023-12-14T05:38:59;57.77;;;18.70;;
18677;SDS011;9469;51.114;13.914;2023-12-14T05:44:08;69.97;;;19.40;;
18677;SDS011;9469;51.114;13.914;2023-12-14T05:49:13;48.57;;;19.07;;
18677;SDS011;9469;51.114;13.914;2023-12-14T05:54:18;94.83;;;19.17;;
18677;SDS011;9469;51.114;13.914;2023-12-14T05:59:26;67.50;;;18.37;;
18677;SDS011;9469;51.114;13.914;2023-12-14T06:04:31;53.67;;;17.60;;
18677;SDS011;9469;51.114;13.914;2023-12-14T06:09:36;47.07;;;18.50;;
18677;SDS011;9469;51.114;13.914;2023-12-14T06:14:47;70.60;;;17.50;;
18677;SDS011;9469;51.114;13.914;2023-12-14T06:19:58;52.80;;;16.57;;
18677;SDS011;9469;51.114;13.914;2023-12-14T06:25:07;40.77;;;15.80;;
18677;SDS011;9469;51.114;13.914;2023-12-14T06:30:17;26.97;;;14.90;;
18677;SDS011;9469;51.114;13.914;2023-12-14T06:35:23;25.50;;;13.07;;
18677;SDS011;9469;51.114;13.914;2023-12-14T06:40:28;24.57;;;12.20;;
18677;SDS011;9469;51.114;13.914;2023-12-14T06:45:36;25.30;;;12.30;;
18677;SDS011;9469;51.114;13.914;2023-12-14T06:50:41;27.10;;;12.60;;
18677;SDS011;9469;51.114;13.914;2023-12-14T06:55:49;42.33;;;12.87;;
18677;SDS011;9469;51.114;13.914;2023-12-14T07:00:59;19.97;;;11.90;;
18677;SDS011;9469;51.114;13.914;2023-12-14T07:06:05;17.63;;;10.93;;
18677;SDS011;9469;51.114;13.914;2023-12-14T07:11:11;19.20;;;10.37;;
18677;SDS011;9469;51.114;13.914;2023-12-14T07:16:20;23.53;;;11.13;;
18677;SDS011;9469;51.114;13.914;2023-12-14T07:21:26;22.07;;;11.73;;
18677;SDS011;9469;51.114;13.914;2023-12-14T07:26:31;22.03;;;10.37;;
18677;SDS011;9469;51.114;13.914;2023-12-14T07:31:41;20.03;;;10.50;;
18677;SDS011;9469;51.114;13.914;2023-12-14T07:36:52;14.40;;;9.27;;
18677;SDS011;9469;51.114;13.914;2023-12-14T07:41:57;18.63;;;10.53;;
18677;SDS011;9469;51.114;13.914;2023-12-14T07:47:05;13.07;;;9.60;;
18677;SDS011;9469;51.114;13.914;2023-12-14T07:52:12;16.30;;;9.47;;
18677;SDS011;9469;51.114;13.914;2023-12-14T07:57:18;16.50;;;9.80;;
18677;SDS011;9469;51.114;13.914;2023-12-14T08:02:25;17.80;;;10.77;;
18677;SDS011;9469;51.114;13.914;2023-12-14T08:07:31;16.50;;;11.47;;
18677;SDS011;9469;51.114;13.914;2023-12-14T08:12:38;18.80;;;10.97;;
18677;SDS011;9469;51.114;13.914;2023-12-14T08:17:46;20.13;;;11.03;;
18677;SDS011;9469;51.114;13.914;2023-12-14T08:22:57;18.73;;;10.83;;
18677;SDS011;9469;51.114;13.914;2023-12-14T08:28:02;18.40;;;11.57;;
18677;SDS011;9469;51.114;13.914;2023-12-14T08:33:10;18.93;;;10.37;;
18677;SDS011;9469;51.114;13.914;2023-12-14T08:38:16;15.40;;;9.57;;
18677;SDS011;9469;51.114;13.914;2023-12-14T08:43:27;17.43;;;10.00;;
18677;SDS011;9469;51.114;13.914;2023-12-14T08:48:35;13.93;;;8.47;;
18677;SDS011;9469;51.114;13.914;2023-12-14T08:53:41;13.70;;;8.40;;
18677;SDS011;9469;51.114;13.914;2023-12-14T08:58:46;10.50;;;7.10;;
18677;SDS011;9469;51.114;13.914;2023-12-14T09:03:57;12.00;;;7.43;;
18677;SDS011;9469;51.114;13.914;2023-12-14T09:09:03;9.13;;;5.97;;
18677;SDS011;9469;51.114;13.914;2023-12-14T09:14:18;5.93;;;3.97;;
18677;SDS011;9469;51.114;13.914;2023-12-14T09:19:32;6.03;;;3.30;;
18677;SDS011;9469;51.114;13.914;2023-12-14T09:24:38;3.93;;;2.90;;
18677;SDS011;9469;51.114;13.914;2023-12-14T09:29:47;3.13;;;2.63;;
18677;SDS011;9469;51.114;13.914;2023-12-14T09:35:00;5.83;;;4.23;;
18677;SDS011;9469;51.114;13.914;2023-12-14T09:40:07;5.43;;;3.70;;
18677;SDS011;9469;51.114;13.914;2023-12-14T09:45:14;5.17;;;3.73;;
18677;SDS011;9469;51.114;13.914;2023-12-14T09:50:28;3.73;;;3.30;;
18677;SDS011;9469;51.114;13.914;2023-12-14T09:55:39;4.27;;;3.30;;
18677;SDS011;9469;51.114;13.914;2023-12-14T10:00:44;3.53;;;2.60;;
18677;SDS011;9469;51.114;13.914;2023-12-14T10:05:57;6.13;;;3.70;;
18677;SDS011;9469;51.114;13.914;2023-12-14T10:11:14;4.23;;;3.30;;
18677;SDS011;9469;51.114;13.914;2023-12-14T10:16:27;6.60;;;4.13;;
18677;SDS011;9469;51.114;13.914;2023-12-14T10:21:37;9.70;;;4.03;;
18677;SDS011;9469;51.114;13.914;2023-12-14T10:26:44;6.37;;;4.77;;
18677;SDS011;9469;51.114;13.914;2023-12-14T10:31:53;5.63;;;4.10;;
18677;SDS011;9469;51.114;13.914;2023-12-14T10:37:04;5.87;;;4.80;;
18677;SDS011;9469;51.114;13.914;2023-12-14T10:42:11;9.30;;;5.87;;
18677;SDS011;9469;51.114;13.914;2023-12-14T10:47:22;9.33;;;5.73;;
18677;SDS011;9469;51.114;13.914;2023-12-14T10:52:32;11.10;;;7.07;;
18677;SDS011;9469;51.114;13.914;2023-12-14T10:57:40;10.87;;;7.37;;
18677;SDS011;9469;51.114;13.914;2023-12-14T11:02:47;12.97;;;6.97;;
18677;SDS011;9469;51.114;13.914;2023-12-14T11:07:59;8.93;;;6.57;;
18677;SDS011;9469;51.114;13.914;2023-12-14T11:13:12;10.43;;;7.17;;
18677;SDS011;9469;51.114;13.914;2023-12-14T11:18:24;14.57;;;7.33;;
18677;SDS011;9469;51.114;13.914;2023-12-14T11:23:36;13.07;;;7.43;;
18677;SDS011;9469;51.114;13.914;2023-12-14T11:28:45;13.77;;;8.37;;
18677;SDS011;9469;51.114;13.914;2023-12-14T11:33:50;11.20;;;8.43;;
18677;SDS011;9469;51.114;13.914;2023-12-14T11:39:00;12.77;;;7.20;;
18677;SDS011;9469;51.114;13.914;2023-12-14T11:44:09;11.13;;;7.07;;
18677;SDS011;9469;51.114;13.914;2023-12-14T11:49:18;10.17;;;6.80;;
18677;SDS011;9469;51.114;13.914;2023-12-14T11:54:26;8.77;;;6.00;;
18677;SDS011;9469;51.114;13.914;2023-12-14T11:59:31;11.37;;;7.50;;
18677;SDS011;9469;51.114;13.914;2023-12-14T12:04:37;9.87;;;7.43;;
18677;SDS011;9469;51.114;13.914;2023-12-14T12:10:01;14.20;;;8.73;;
18677;SDS011;9469;51.114;13.914;2023-12-14T12:15:08;14.30;;;8.73;;
18677;SDS011;9469;51.114;13.914;2023-12-14T12:20:15;12.37;;;7.77;;
18677;SDS011;9469;51.114;13.914;2023-12-14T12:25:23;11.40;;;7.77;;
18677;SDS011;9469;51.114;13.914;2023-12-14T12:30:30;13.37;;;8.27;;
18677;SDS011;9469;51.114;13.914;2023-12-14T12:35:46;16.40;;;9.30;;
18677;SDS011;9469;51.114;13.914;2023-12-14T12:41:09;16.57;;;10.00;;
18677;SDS011;9469;51.114;13.914;2023-12-14T12:46:16;16.97;;;9.80;;
18677;SDS011;9469;51.114;13.914;2023-12-14T12:51:25;19.43;;;9.43;;
18677;SDS011;9469;51.114;13.914;2023-12-14T12:56:36;19.80;;;10.70;;
18677;SDS011;9469;51.114;13.914;2023-12-14T13:01:44;20.53;;;10.33;;
18677;SDS011;9469;51.114;13.914;2023-12-14T13:06:52;29.33;;;10.57;;
18677;SDS011;9469;51.114;13.914;2023-12-14T13:12:02;18.03;;;10.33;;
18677;SDS011;9469;51.114;13.914;2023-12-14T13:17:11;20.50;;;10.77;;
18677;SDS011;9469;51.114;13.914;2023-12-14T13:22:19;21.00;;;10.57;;
18677;SDS011;9469;51.114;13.914;2023-12-14T13:27:33;20.37;;;10.83;;
18677;SDS011;9469;51.114;13.914;2023-12-14T13:32:39;20.63;;;9.67;;
18677;SDS011;9469;51.114;13.914;2023-12-14T13:37:47;13.00;;;7.97;;
18677;SDS011;9469;51.114;13.914;2023-12-14T13:42:55;12.80;;;7.80;;
18677;SDS011;9469;51.114;13.914;2023-12-14T13:48:09;11.17;;;7.43;;
18677;SDS011;9469;51.114;13.914;2023-12-14T13:53:16;13.03;;;8.60;;
18677;SDS011;9469;51.114;13.914;2023-12-14T13:58:25;10.90;;;7.03;;
18677;SDS011;9469;51.114;13.914;2023-12-14T14:03:32;9.57;;;6.57;;
18677;SDS011;9469;51.114;13.914;2023-12-14T14:08:38;10.80;;;6.70;;
18677;SDS011;9469;51.114;13.914;2023-12-14T14:13:47;12.07;;;6.50;;
18677;SDS011;9469;51.114;13.914;2023-12-14T14:18:59;8.53;;;5.60;;
18677;SDS011;9469;51.114;13.914;2023-12-14T14:24:10;6.53;;;4.67;;
18677;SDS011;9469;51.114;13.914;2023-12-14T14:29:19;6.07;;;4.83;;
18677;SDS011;9469;51.114;13.914;2023-12-14T14:34:25;6.97;;;4.93;;
18677;SDS011;9469;51.114;13.914;2023-12-14T14:39:32;6.20;;;5.13;;
18677;SDS011;9469;51.114;13.914;2023-12-14T14:44:46;7.20;;;5.37;;
18677;SDS011;9469;51.114;13.914;2023-12-14T14:49:51;8.63;;;5.57;;
18677;SDS011;9469;51.114;13.914;2023-12-14T14:54:59;10.40;;;6.33;;
18677;SDS011;9469;51.114;13.914;2023-12-14T15:00:08;7.47;;;5.67;;
18677;SDS011;9469;51.114;13.914;2023-12-14T15:05:15;5.63;;;4.30;;
18677;SDS011;9469;51.114;13.914;2023-12-14T15:10:20;7.03;;;4.70;;
18677;SDS011;9469;51.114;13.914;2023-12-14T15:15:28;6.67;;;4.73;;
18677;SDS011;9469;51.114;13.914;2023-12-14T15:20:39;5.77;;;4.73;;
18677;SDS011;9469;51.114;13.914;2023-12-14T15:25:45;7.23;;;5.63;;
18677;SDS011;9469;51.114;13.914;2023-12-14T15:30:54;6.50;;;4.97;;
18677;SDS011;9469;51.114;13.914;2023-12-14T15:35:59;6.17;;;5.30;;
18677;SDS011;9469;51.114;13.914;2023-12-14T15:41:06;7.53;;;5.40;;
18677;SDS011;9469;51.114;13.914;2023-12-14T15:46:18;4.63;;;4.17;;
18677;SDS011;9469;51.114;13.914;2023-12-14T15:51:23;8.57;;;5.67;;
18677;SDS011;9469;51.114;13.914;2023-12-14T15:56:28;6.23;;;4.73;;
18677;SDS011;9469;51.114;13.914;2023-12-14T16:01:39;5.80;;;3.97;;
18677;SDS011;9469;51.114;13.914;2023-12-14T16:06:53;7.27;;;3.33;;
18677;SDS011;9469;51.114;13.914;2023-12-14T16:11:58;5.40;;;4.07;;
18677;SDS011;9469;51.114;13.914;2023-12-14T16:17:10;5.00;;;4.50;;
18677;SDS011;9469;51.114;13.914;2023-12-14T16:22:15;6.10;;;4.60;;
18677;SDS011;9469;51.114;13.914;2023-12-14T16:27:23;11.37;;;5.87;;
18677;SDS011;9469;51.114;13.914;2023-12-14T16:32:31;6.67;;;4.37;;
18677;SDS011;9469;51.114;13.914;2023-12-14T16:37:37;5.07;;;4.17;;
18677;SDS011;9469;51.114;13.914;2023-12-14T16:42:42;5.00;;;3.97;;
18677;SDS011;9469;51.114;13.914;2023-12-14T16:47:55;4.97;;;3.97;;
18677;SDS011;9469;51.114;13.914;2023-12-14T16:53:01;4.57;;;3.97;;
18677;SDS011;9469;51.114;13.914;2023-12-14T16:58:12;5.10;;;4.13;;
18677;SDS011;9469;51.114;13.914;2023-12-14T17:03:20;5.20;;;4.60;;
18677;SDS011;9469;51.114;13.914;2023-12-14T17:08:26;4.83;;;3.83;;
18677;SDS011;9469;51.114;13.914;2023-12-14T17:13:33;4.90;;;4.40;;
18677;SDS011;9469;51.114;13.914;2023-12-14T17:18:40;4.80;;;4.30;;
18677;SDS011;9469;51.114;13.914;2023-12-14T17:23:47;5.37;;;4.17;;
18677;SDS011;9469;51.114;13.914;2023-12-14T17:28:54;5.27;;;4.47;;
18677;SDS011;9469;51.114;13.914;2023-12-14T17:34:03;4.90;;;4.40;;
18677;SDS011;9469;51.114;13.914;2023-12-14T17:39:11;7.37;;;4.33;;
18677;SDS011;9469;51.114;13.914;2023-12-14T17:44:16;6.23;;;4.20;;
18677;SDS011;9469;51.114;13.914;2023-12-14T17:49:31;6.90;;;4.97;;
18677;SDS011;9469;51.114;13.914;2023-12-14T17:54:36;9.13;;;5.47;;
18677;SDS011;9469;51.114;13.914;2023-12-14T17:59:41;6.43;;;5.37;;
18677;SDS011;9469;51.114;13.914;2023-12-14T18:04:51;7.43;;;5.53;;
18677;SDS011;9469;51.114;13.914;2023-12-14T18:09:56;7.37;;;5.00;;
18677;SDS011;9469;51.114;13.914;2023-12-14T18:15:01;6.70;;;5.03;;
18677;SDS011;9469;51.114;13.914;2023-12-14T18:20:10;6.20;;;5.00;;
18677;SDS011;9469;51.114;13.914;2023-12-14T18:25:15;5.77;;;4.53;;
18677;SDS011;9469;51.114;13.914;2023-12-14T18:30:27;6.30;;;4.83;;
18677;SDS011;9469;51.114;13.914;2023-12-14T18:35:35;7.03;;;5.10;;
18677;SDS011;9469;51.114;13.914;2023-12-14T18:40:40;6.30;;;4.37;;
18677;SDS011;9469;51.114;13.914;2023-12-14T18:45:46;5.90;;;4.93;;
18677;SDS011;9469;51.114;13.914;2023-12-14T18:50:56;6.23;;;4.53;;
18677;SDS011;9469;51.114;13.914;2023-12-14T18:56:02;6.83;;;4.93;;
18677;SDS011;9469;51.114;13.914;2023-12-14T19:01:08;7.80;;;5.57;;
18677;SDS011;9469;51.114;13.914;2023-12-14T19:06:20;7.03;;;5.90;;
18677;SDS011;9469;51.114;13.914;2023-12-14T19:11:28;7.13;;;5.80;;
18677;SDS011;9469;51.114;13.914;2023-12-14T19:16:33;7.30;;;5.60;;
18677;SDS011;9469;51.114;13.914;2023-12-14T19:21:43;7.20;;;5.37;;
18677;SDS011;9469;51.114;13.914;2023-12-14T19:26:51;7.77;;;5.57;;
18677;SDS011;9469;51.114;13.914;2023-12-14T19:31:57;8.37;;;5.33;;
18677;SDS011;9469;51.114;13.914;2023-12-14T19:37:06;7.60;;;5.43;;
18677;SDS011;9469;51.114;13.914;2023-12-14T19:42:11;7.93;;;5.40;;
18677;SDS011;9469;51.114;13.914;2023-12-14T19:47:19;7.13;;;5.10;;
18677;SDS011;9469;51.114;13.914;2023-12-14T19:52:28;6.43;;;4.40;;
18677;SDS011;9469;51.114;13.914;2023-12-14T19:57:34;5.13;;;4.33;;
18677;SDS011;9469;51.114;13.914;2023-12-14T20:02:39;5.73;;;4.27;;
18677;SDS011;9469;51.114;13.914;2023-12-14T20:07:49;6.33;;;4.60;;
18677;SDS011;9469;51.114;13.914;2023-12-14T20:12:54;7.60;;;5.23;;
18677;SDS011;9469;51.114;13.914;2023-12-14T20:18:00;7.43;;;5.27;;
18677;SDS011;9469;51.114;13.914;2023-12-14T20:23:09;7.27;;;5.17;;
18677;SDS011;9469;51.114;13.914;2023-12-14T20:28:14;7.63;;;6.07;;
18677;SDS011;9469;51.114;13.914;2023-12-14T20:33:19;9.40;;;6.00;;
18677;SDS011;9469;51.114;13.914;2023-12-14T20:38:28;7.77;;;5.67;;
18677;SDS011;9469;51.114;13.914;2023-12-14T20:43:33;10.00;;;6.53;;
18677;SDS011;9469;51.114;13.914;2023-12-14T20:48:40;6.93;;;4.83;;
18677;SDS011;9469;51.114;13.914;2023-12-14T20:53:49;7.63;;;5.60;;
18677;SDS011;9469;51.114;13.914;2023-12-14T20:58:55;6.90;;;4.90;;
18677;SDS011;9469;51.114;13.914;2023-12-14T21:04:03;8.50;;;4.97;;
18677;SDS011;9469;51.114;13.914;2023-12-14T21:09:11;5.27;;;4.20;;
18677;SDS011;9469;51.114;13.914;2023-12-14T21:14:16;6.40;;;4.97;;
18677;SDS011;9469;51.114;13.914;2023-12-14T21:19:23;5.53;;;4.87;;
18677;SDS011;9469;51.114;13.914;2023-12-14T21:24:30;4.73;;;4.23;;
18677;SDS011;9469;51.114;13.914;2023-12-14T21:29:42;6.13;;;4.87;;
18677;SDS011;9469;51.114;13.914;2023-12-14T21:34:47;5.57;;;4.73;;
18677;SDS011;9469;51.114;13.914;2023-12-14T21:39:55;5.40;;;4.47;;
18677;SDS011;9469;51.114;13.914;2023-12-14T21:45:01;7.27;;;4.43;;
18677;SDS011;9469;51.114;13.914;2023-12-14T21:50:09;5.93;;;4.40;;
18677;SDS011;9469;51.114;13.914;2023-12-14T21:55:23;5.97;;;4.83;;
18677;SDS011;9469;51.114;13.914;2023-12-14T22:00:28;6.20;;;5.00;;
18677;SDS011;9469;51.114;13.914;2023-12-14T22:05:34;6.30;;;4.70;;
18677;SDS011;9469;51.114;13.914;2023-12-14T22:10:44;5.60;;;4.40;;
18677;SDS011;9469;51.114;13.914;2023-12-14T22:15:53;7.07;;;4.67;;
18677;SDS011;9469;51.114;13.914;2023-12-14T22:20:58;6.50;;;4.03;;
18677;SDS011;9469;51.114;13.914;2023-12-14T22:26:11;7.13;;;4.60;;
18677;SDS011;9469;51.114;13.914;2023-12-14T22:31:18;6.10;;;4.90;;
18677;SDS011;9469;51.114;13.914;2023-12-14T22:36:24;8.13;;;5.43;;
18677;SDS011;9469;51.114;13.914;2023-12-14T22:41:32;6.03;;;5.00;;
18677;SDS011;9469;51.114;13.914;2023-12-14T22:46:46;6.90;;;5.03;;
18677;SDS011;9469;51.114;13.914;2023-12-14T22:51:56;7.17;;;4.87;;
18677;SDS011;9469;51.114;13.914;2023-12-14T22:57:04;6.13;;;4.80;;
18677;SDS011;9469;51.114;13.914;2023-12-14T23:02:09;7.13;;;5.00;;
18677;SDS011;9469;51.114;13.914;2023-12-14T23:07:14;6.43;;;4.93;;
18677;SDS011;9469;51.114;13.914;2023-12-14T23:12:22;7.83;;;5.67;;
18677;SDS011;9469;51.114;13.914;2023-12-14T23:17:33;7.70;;;5.90;;
18677;SDS011;9469;51.114;13.914;2023-12-14T23:22:39;5.90;;;4.80;;
18677;SDS011;9469;51.114;13.914;2023-12-14T23:27:48;6.70;;;5.07;;
18677;SDS011;9469;51.114;13.914;2023-12-14T23:32:53;6.00;;;4.67;;
18677;SDS011;9469;51.114;13.914;2023-12-14T23:38:00;8.80;;;5.37;;
18677;SDS011;9469;51.114;13.914;2023-12-14T23:43:08;6.53;;;4.83;;
18677;SDS011;9469;51.114;13.914;2023-12-14T23:48:13;5.40;;;4.70;;
18677;SDS011;9469;51.114;13.914;2023-12-14T23:53:19;7.23;;;5.10;;
18677;SDS011;9469;51.114;13.914;2023-12-14T23:58:27;8.63;;;5.80;;
